createdAt,value
2023-03-01T00:01:58.234Z,66.94
2023-03-01T00:05:01.124Z,66.40
2023-03-01T00:08:05.301Z,67.51
2023-03-01T00:11:10.503Z,66.92
2023-03-01T00:14:13.612Z,66.31
2023-03-01T00:17:16.370Z,65.94
2023-03-01T00:20:19.364Z,66.06
2023-03-01T00:23:24.441Z,66.66
2023-03-01T00:26:28.289Z,66.58
2023-03-01T00:29:31.437Z,66.82
2023-03-01T00:32:34.293Z,68.69
2023-03-01T00:35:37.846Z,67.65
2023-03-01T00:38:43.716Z,69.00
2023-03-01T00:41:46.431Z,69.25
2023-03-01T00:44:49.193Z,69.63
2023-03-01T00:47:52.821Z,69.27
2023-03-01T00:50:55.480Z,68.64
2023-03-01T00:54:02.590Z,68.87
2023-03-01T00:57:05.363Z,68.51
2023-03-01T01:00:10.709Z,68.53
2023-03-01T01:03:13.731Z,68.75
2023-03-01T01:06:22.610Z,67.66
2023-03-01T01:09:26.954Z,68.10
2023-03-01T01:12:29.972Z,68.56
2023-03-01T01:15:36.166Z,68.75
2023-03-01T01:18:39.352Z,67.96
2023-03-01T01:21:44.207Z,68.37
2023-03-01T01:24:49.052Z,68.78
2023-03-01T01:27:51.912Z,68.52
2023-03-01T01:30:54.934Z,68.69
2023-03-01T01:33:58.617Z,68.40
2023-03-01T01:37:03.704Z,67.55
2023-03-01T01:40:09.179Z,68.41
2023-03-01T01:43:20.257Z,69.09
2023-03-01T01:46:30.670Z,68.97
2023-03-01T01:49:37.468Z,69.67
2023-03-01T01:52:40.376Z,69.50
2023-03-01T01:55:47.359Z,70.13
2023-03-01T01:58:50.573Z,70.57
2023-03-01T02:01:53.632Z,70.15
2023-03-01T02:05:04.678Z,70.57
2023-03-01T02:08:07.739Z,69.37
2023-03-01T02:11:15.661Z,69.29
2023-03-01T02:14:19.203Z,69.84
2023-03-01T02:17:23.668Z,71.16
2023-03-01T02:20:35.433Z,72.03
2023-03-01T02:23:38.531Z,71.89
2023-03-01T02:26:47.246Z,71.97
2023-03-01T02:29:51.448Z,72.95
2023-03-01T02:33:03.879Z,72.38
2023-03-01T02:36:10.206Z,72.17
2023-03-01T02:39:18.563Z,72.49
2023-03-01T02:42:28.038Z,72.43
2023-03-01T02:45:32.753Z,72.28
2023-03-01T02:48:43.619Z,71.86
2023-03-01T02:51:56.895Z,71.84
2023-03-01T02:55:02.862Z,71.94
2023-03-01T02:58:06.504Z,71.56
2023-03-01T03:01:10.973Z,71.34
2023-03-01T03:04:18.854Z,72.49
2023-03-01T03:07:21.843Z,72.07
2023-03-01T03:10:28.807Z,72.13
2023-03-01T03:13:31.943Z,72.08
2023-03-01T03:16:36.237Z,70.79
2023-03-01T03:19:39.049Z,70.69
2023-03-01T03:22:42.095Z,70.97
2023-03-01T03:25:44.773Z,71.27
2023-03-01T03:28:47.720Z,71.85
2023-03-01T03:31:51.905Z,71.28
2023-03-01T03:34:54.679Z,71.62
2023-03-01T03:38:04.200Z,71.79
2023-03-01T03:41:09.172Z,71.74
2023-03-01T03:44:12.107Z,72.32
2023-03-01T03:47:16.578Z,72.21
2023-03-01T03:50:20.277Z,71.40
2023-03-01T03:53:24.658Z,72.39
2023-03-01T03:56:28.910Z,71.74
2023-03-01T03:59:31.804Z,70.77
2023-03-01T04:02:35.875Z,70.53
2023-03-01T04:05:39.296Z,71.46
2023-03-01T04:08:42.916Z,71.29
2023-03-01T04:11:45.778Z,70.93
2023-03-01T04:14:49.040Z,71.12
2023-03-01T04:17:54.397Z,70.37
2023-03-01T04:20:57.173Z,70.43
2023-03-01T04:23:59.845Z,70.21
2023-03-01T04:27:03.208Z,69.78
2023-03-01T04:30:06.716Z,71.08
2023-03-01T04:33:12.952Z,71.25
2023-03-01T04:36:18.613Z,71.54
2023-03-01T04:39:21.496Z,71.32
2023-03-01T04:42:24.233Z,71.91
2023-03-01T04:45:27.253Z,71.98
2023-03-01T04:48:31.903Z,71.44
2023-03-01T04:51:34.719Z,71.91
2023-03-01T04:54:38.084Z,72.00
2023-03-01T04:57:41.584Z,71.85
2023-03-01T05:00:44.488Z,72.05
2023-03-01T05:03:50.180Z,72.51
2023-03-01T05:06:54.510Z,72.39
2023-03-01T05:09:57.313Z,72.40
2023-03-01T05:13:00.709Z,73.02
2023-03-01T05:16:05.525Z,73.01
2023-03-01T05:19:16.368Z,72.91
2023-03-01T05:22:20.254Z,72.89
2023-03-01T05:25:23.638Z,71.71
2023-03-01T05:28:26.607Z,71.55
2023-03-01T05:31:31.661Z,71.05
2023-03-01T05:34:38.006Z,70.86
2023-03-01T05:37:42.564Z,70.19
2023-03-01T05:40:47.613Z,69.55
2023-03-01T05:43:50.473Z,69.83
2023-03-01T05:46:53.628Z,69.20
2023-03-01T05:49:57.729Z,69.44
2023-03-01T05:53:02.172Z,68.77
2023-03-01T05:56:05.628Z,68.70
2023-03-01T05:59:08.832Z,68.47
2023-03-01T06:02:11.513Z,68.95
2023-03-01T06:05:17.034Z,68.69
2023-03-01T06:08:21.281Z,68.84
2023-03-01T06:11:24.661Z,68.78
2023-03-01T06:14:27.457Z,68.60
2023-03-01T06:17:32.388Z,69.02
2023-03-01T06:20:36.525Z,68.74
2023-03-01T06:23:39.198Z,68.40
2023-03-01T06:26:41.970Z,68.65
2023-03-01T06:29:44.666Z,68.34
2023-03-01T06:32:47.552Z,67.79
2023-03-01T06:35:52.319Z,68.03
2023-03-01T06:38:55.151Z,67.44
2023-03-01T06:41:57.935Z,67.97
2023-03-01T06:45:00.686Z,67.59
2023-03-01T06:48:05.521Z,67.96
2023-03-01T06:51:09.724Z,67.89
2023-03-01T06:54:12.666Z,67.42
2023-03-01T06:57:15.652Z,66.30
2023-03-01T07:00:19.353Z,62.80
2023-03-01T07:03:22.155Z,57.90
2023-03-01T07:06:26.340Z,53.92
2023-03-01T07:09:29.394Z,49.53
2023-03-01T07:12:32.113Z,47.02
2023-03-01T07:15:34.939Z,46.12
2023-03-01T07:18:37.708Z,47.55
2023-03-01T07:21:41.751Z,49.29
2023-03-01T07:24:45.401Z,51.15
2023-03-01T07:27:52.148Z,53.42
2023-03-01T07:30:55.359Z,55.74
2023-03-01T07:33:58.298Z,57.33
2023-03-01T07:37:02.357Z,57.89
2023-03-01T07:40:06.176Z,58.90
2023-03-01T07:43:09.029Z,59.33
2023-03-01T07:46:12.275Z,60.43
2023-03-01T07:49:15.423Z,61.23
2023-03-01T07:52:19.591Z,61.69
2023-03-01T07:55:22.445Z,62.95
2023-03-01T07:58:25.288Z,62.80
2023-03-01T08:01:28.148Z,63.65
2023-03-01T08:04:30.944Z,64.72
2023-03-01T08:07:35.502Z,64.07
2023-03-01T08:10:38.714Z,65.10
2023-03-01T08:13:42.276Z,65.04
2023-03-01T08:16:45.163Z,65.41
2023-03-01T08:19:47.960Z,66.57
2023-03-01T08:22:52.062Z,65.99
2023-03-01T08:25:54.922Z,64.95
2023-03-01T08:28:58.790Z,64.98
2023-03-01T08:32:02.128Z,64.33
2023-03-01T08:35:05.506Z,64.09
2023-03-01T08:38:09.748Z,64.37
2023-03-01T08:41:12.505Z,63.83
2023-03-01T08:44:17.667Z,63.05
2023-03-01T08:47:20.515Z,63.56
2023-03-01T08:50:25.336Z,64.23
2023-03-01T08:53:29.366Z,63.44
2023-03-01T08:56:32.784Z,64.29
2023-03-01T08:59:38.374Z,63.91
2023-03-01T09:02:41.221Z,64.17
2023-03-01T09:05:43.936Z,64.15
2023-03-01T09:08:49.857Z,62.73
2023-03-01T09:11:52.670Z,62.64
2023-03-01T09:14:55.340Z,62.97
2023-03-01T09:17:58.125Z,61.67
2023-03-01T09:21:08.040Z,61.83
2023-03-01T09:24:16.381Z,61.43
2023-03-01T09:27:19.955Z,60.12
2023-03-01T09:30:23.554Z,60.47
2023-03-01T09:33:26.318Z,59.26
2023-03-01T09:36:30.037Z,59.75
2023-03-01T09:39:34.420Z,58.43
2023-03-01T09:42:38.693Z,58.06
2023-03-01T09:45:46.022Z,56.50
2023-03-01T09:48:54.476Z,54.85
2023-03-01T09:52:01.147Z,53.17
2023-03-01T09:55:12.652Z,52.89
2023-03-01T09:58:38.012Z,51.44
2023-03-01T10:01:49.712Z,51.30
2023-03-01T10:04:54.743Z,50.16
2023-03-01T10:08:06.966Z,50.34
2023-03-01T10:11:24.930Z,50.87
2023-03-01T10:14:36.285Z,49.25
2023-03-01T10:17:44.875Z,48.94
2023-03-01T10:20:55.192Z,47.22
2023-03-01T10:24:05.924Z,47.27
2023-03-01T10:27:17.983Z,47.69
2023-03-01T10:30:24.434Z,47.07
2023-03-01T10:33:31.347Z,46.60
2023-03-01T10:36:35.889Z,46.24
2023-03-01T10:39:57.288Z,46.67
2023-03-01T10:43:04.670Z,44.83
2023-03-01T10:46:25.156Z,44.41
2023-03-01T10:49:27.939Z,43.92
2023-03-01T10:52:35.068Z,43.84
2023-03-01T10:55:40.055Z,43.86
2023-03-01T10:59:00.195Z,43.68
2023-03-01T11:02:24.396Z,42.59
2023-03-01T11:05:29.403Z,42.75
2023-03-01T11:08:35.248Z,42.10
2023-03-01T11:11:38.802Z,42.52
2023-03-01T11:14:49.577Z,42.97
2023-03-01T11:17:57.068Z,42.27
2023-03-01T11:21:05.649Z,42.99
2023-03-01T11:24:13.906Z,41.20
2023-03-01T11:27:21.815Z,42.33
2023-03-01T11:30:30.998Z,41.30
2023-03-01T11:33:39.132Z,41.35
2023-03-01T11:36:47.139Z,40.66
2023-03-01T11:39:58.209Z,40.26
2023-03-01T11:43:11.883Z,39.82
2023-03-01T11:46:45.424Z,39.34
2023-03-01T11:50:11.015Z,39.57
2023-03-01T11:53:32.507Z,38.77
2023-03-01T11:56:40.454Z,40.47
2023-03-01T12:00:17.662Z,39.66
2023-03-01T12:03:34.486Z,38.35
2023-03-01T12:06:53.056Z,38.38
2023-03-01T12:10:12.787Z,38.99
2023-03-01T12:13:39.634Z,41.03
2023-03-01T12:17:09.944Z,39.93
2023-03-01T12:20:34.433Z,39.02
2023-03-01T12:24:00.715Z,38.81
2023-03-01T12:27:22.721Z,38.10
2023-03-01T12:30:37.398Z,39.78
2023-03-01T12:33:50.940Z,38.91
2023-03-01T12:37:13.002Z,38.32
2023-03-01T12:40:35.520Z,37.20
2023-03-01T12:43:52.756Z,38.35
2023-03-01T12:47:21.420Z,38.08
2023-03-01T12:50:26.666Z,38.60
2023-03-01T12:53:33.331Z,37.73
2023-03-01T12:56:39.168Z,37.91
2023-03-01T12:59:50.187Z,37.50
2023-03-01T13:03:00.280Z,36.50
2023-03-01T13:06:13.076Z,36.20
2023-03-01T13:09:27.033Z,36.58
2023-03-01T13:12:53.760Z,37.51
2023-03-01T13:15:57.242Z,36.61
2023-03-01T13:19:10.472Z,37.41
2023-03-01T13:22:29.587Z,38.17
2023-03-01T13:25:42.046Z,36.14
2023-03-01T13:28:54.523Z,36.39
2023-03-01T13:31:59.438Z,37.45
2023-03-01T13:35:04.435Z,37.48
2023-03-01T13:38:46.873Z,37.60
2023-03-01T13:41:56.137Z,38.31
2023-03-01T13:44:59.185Z,37.38
2023-03-01T13:48:05.899Z,38.07
2023-03-01T13:51:12.008Z,38.14
2023-03-01T13:54:17.473Z,37.95
2023-03-01T13:57:26.940Z,37.51
2023-03-01T14:00:33.515Z,37.17
2023-03-01T14:03:43.850Z,38.32
2023-03-01T14:06:47.056Z,38.95
2023-03-01T14:09:54.686Z,39.08
2023-03-01T14:13:16.172Z,38.56
2023-03-01T14:16:27.446Z,39.01
2023-03-01T14:19:34.104Z,38.61
2023-03-01T14:22:38.535Z,38.72
2023-03-01T14:25:49.488Z,39.63
2023-03-01T14:28:53.683Z,40.27
2023-03-01T14:31:56.516Z,40.87
2023-03-01T14:35:00.760Z,41.04
2023-03-01T14:38:04.021Z,40.91
2023-03-01T14:41:09.765Z,41.77
2023-03-01T14:44:20.643Z,41.27
2023-03-01T14:47:29.294Z,40.60
2023-03-01T14:50:34.017Z,41.28
2023-03-01T14:53:49.268Z,41.14
2023-03-01T14:56:54.965Z,41.61
2023-03-01T15:00:05.245Z,41.61
2023-03-01T15:03:14.224Z,42.11
2023-03-01T15:06:20.370Z,42.25
2023-03-01T15:09:24.286Z,42.52
2023-03-01T15:12:39.599Z,42.57
2023-03-01T15:15:47.285Z,43.90
2023-03-01T15:18:52.813Z,43.22
2023-03-01T15:21:55.805Z,43.36
2023-03-01T15:24:59.183Z,43.70
2023-03-01T15:28:03.989Z,44.08
2023-03-01T15:31:21.493Z,44.20
2023-03-01T15:34:26.815Z,43.70
2023-03-01T15:37:41.642Z,44.32
2023-03-01T15:40:52.025Z,44.20
2023-03-01T15:43:56.523Z,44.01
2023-03-01T15:47:01.343Z,44.80
2023-03-01T15:50:04.438Z,44.17
2023-03-01T15:53:12.050Z,45.00
2023-03-01T15:56:15.228Z,44.54
2023-03-01T15:59:18.116Z,44.50
2023-03-01T16:02:23.018Z,44.79
2023-03-01T16:05:27.832Z,45.54
2023-03-01T16:08:30.573Z,45.53
2023-03-01T16:11:33.557Z,45.77
2023-03-01T16:14:36.488Z,45.58
2023-03-01T16:17:40.755Z,45.24
2023-03-01T16:20:44.023Z,45.36
2023-03-01T16:23:47.107Z,45.47
2023-03-01T16:26:49.765Z,45.74
2023-03-01T16:29:52.419Z,45.83
2023-03-01T16:32:56.468Z,45.76
2023-03-01T16:36:01.131Z,46.24
2023-03-01T16:39:04.360Z,46.28
2023-03-01T16:42:07.304Z,46.84
2023-03-01T16:45:22.795Z,47.54
2023-03-01T16:48:28.322Z,47.41
2023-03-01T16:51:31.967Z,47.37
2023-03-01T16:54:34.904Z,47.02
2023-03-01T16:57:38.726Z,47.39
2023-03-01T17:00:41.611Z,47.90
2023-03-01T17:03:48.284Z,47.83
2023-03-01T17:06:51.619Z,47.52
2023-03-01T17:09:54.297Z,48.14
2023-03-01T17:12:57.134Z,48.22
2023-03-01T17:15:59.821Z,48.97
2023-03-01T17:19:04.269Z,49.29
2023-03-01T17:22:06.967Z,49.76
2023-03-01T17:25:10.615Z,49.86
2023-03-01T17:28:14.699Z,50.55
2023-03-01T17:31:17.431Z,50.34
2023-03-01T17:34:21.547Z,50.80
2023-03-01T17:37:24.770Z,51.57
2023-03-01T17:40:28.447Z,51.53
2023-03-01T17:43:31.421Z,51.28
2023-03-01T17:46:34.087Z,52.14
2023-03-01T17:49:38.674Z,52.25
2023-03-01T17:52:42.555Z,52.39
2023-03-01T17:55:46.158Z,52.50
2023-03-01T17:58:48.881Z,53.16
2023-03-01T18:01:52.312Z,53.29
2023-03-01T18:04:58.823Z,53.76
2023-03-01T18:08:01.637Z,53.86
2023-03-01T18:11:04.439Z,53.71
2023-03-01T18:14:07.114Z,54.43
2023-03-01T18:17:11.881Z,54.30
2023-03-01T18:20:17.944Z,54.28
2023-03-01T18:23:20.625Z,54.39
2023-03-01T18:26:25.103Z,55.11
2023-03-01T18:29:28.285Z,54.21
2023-03-01T18:32:31.029Z,55.69
2023-03-01T18:35:38.843Z,55.11
2023-03-01T18:38:41.768Z,56.74
2023-03-01T18:41:44.609Z,56.04
2023-03-01T18:44:47.495Z,56.52
2023-03-01T18:47:50.764Z,56.96
2023-03-01T18:50:54.860Z,56.52
2023-03-01T18:53:59.524Z,56.91
2023-03-01T18:57:02.332Z,57.53
2023-03-01T19:00:09.138Z,57.83
2023-03-01T19:03:12.271Z,58.23
2023-03-01T19:06:17.338Z,57.79
2023-03-01T19:09:20.146Z,58.53
2023-03-01T19:12:22.854Z,58.32
2023-03-01T19:15:25.627Z,59.33
2023-03-01T19:18:28.519Z,59.15
2023-03-01T19:21:33.775Z,58.51
2023-03-01T19:24:36.786Z,57.92
2023-03-01T19:27:39.740Z,59.31
2023-03-01T19:30:42.487Z,58.28
2023-03-01T19:33:45.385Z,57.71
2023-03-01T19:36:49.827Z,57.86
2023-03-01T19:39:52.469Z,57.96
2023-03-01T19:42:55.183Z,57.93
2023-03-01T19:45:58.295Z,57.69
2023-03-01T19:49:03.065Z,56.70
2023-03-01T19:52:07.242Z,57.39
2023-03-01T19:55:11.015Z,56.90
2023-03-01T19:58:13.728Z,56.19
2023-03-01T20:01:17.857Z,56.23
2023-03-01T20:04:20.934Z,56.44
2023-03-01T20:07:25.241Z,55.77
2023-03-01T20:10:30.315Z,56.33
2023-03-01T20:13:33.261Z,56.03
2023-03-01T20:16:36.150Z,55.84
2023-03-01T20:19:39.105Z,56.71
2023-03-01T20:22:43.347Z,57.48
2023-03-01T20:25:46.266Z,57.17
2023-03-01T20:28:50.949Z,57.67
2023-03-01T20:31:54.094Z,56.25
2023-03-01T20:34:56.904Z,56.38
2023-03-01T20:38:01.005Z,56.25
2023-03-01T20:41:06.033Z,58.00
2023-03-01T20:44:09.457Z,59.30
2023-03-01T20:47:12.751Z,59.53
2023-03-01T20:50:16.212Z,59.53
2023-03-01T20:53:20.182Z,59.56
2023-03-01T20:56:24.215Z,58.84
2023-03-01T20:59:27.240Z,60.05
2023-03-01T21:02:29.949Z,59.60
2023-03-01T21:05:32.727Z,60.74
2023-03-01T21:08:38.173Z,60.90
2023-03-01T21:11:41.082Z,61.28
2023-03-01T21:14:43.854Z,61.16
2023-03-01T21:17:46.576Z,61.74
2023-03-01T21:20:49.723Z,62.15
2023-03-01T21:23:54.877Z,62.65
2023-03-01T21:26:57.667Z,63.14
2023-03-01T21:30:00.355Z,63.99
2023-03-01T21:33:03.255Z,62.87
2023-03-01T21:36:08.286Z,63.24
2023-03-01T21:39:12.882Z,63.02
2023-03-01T21:42:15.564Z,63.84
2023-03-01T21:45:18.391Z,64.09
2023-03-01T21:48:21.375Z,63.88
2023-03-01T21:51:26.866Z,63.18
2023-03-01T21:54:32.347Z,63.52
2023-03-01T21:57:43.732Z,64.25
2023-03-01T22:00:47.077Z,63.24
2023-03-01T22:03:49.976Z,64.01
2023-03-01T22:06:54.448Z,64.55
2023-03-01T22:10:01.759Z,64.37
2023-03-01T22:13:05.429Z,65.25
2023-03-01T22:16:08.981Z,66.26
2023-03-01T22:19:13.145Z,65.64
2023-03-01T22:22:15.926Z,65.97
2023-03-01T22:25:20.326Z,66.45
2023-03-01T22:28:23.068Z,66.25
2023-03-01T22:31:26.292Z,66.08
2023-03-01T22:34:29.248Z,65.84
2023-03-01T22:37:31.999Z,66.47
2023-03-01T22:40:36.074Z,66.47
2023-03-01T22:43:38.819Z,66.71
2023-03-01T22:46:42.019Z,66.52
2023-03-01T22:49:45.223Z,66.67
2023-03-01T22:52:47.956Z,67.07
2023-03-01T22:55:52.096Z,67.14
2023-03-01T22:58:54.828Z,67.44
2023-03-01T23:01:57.575Z,67.43
2023-03-01T23:05:00.345Z,67.54
2023-03-01T23:08:03.095Z,67.82
2023-03-01T23:11:11.628Z,68.10
2023-03-01T23:14:16.199Z,68.38
2023-03-01T23:17:18.900Z,68.00
2023-03-01T23:20:21.596Z,68.03
2023-03-01T23:23:24.339Z,67.93
2023-03-01T23:26:30.430Z,67.78
2023-03-01T23:29:34.026Z,67.48
2023-03-01T23:32:40.541Z,67.46
2023-03-01T23:35:43.401Z,67.92
2023-03-01T23:38:46.463Z,68.15
2023-03-01T23:41:50.703Z,67.71
2023-03-01T23:44:53.469Z,68.65
2023-03-01T23:47:56.607Z,67.99
2023-03-01T23:51:05.300Z,67.74
2023-03-01T23:54:08.303Z,67.52
2023-03-01T23:57:12.671Z,68.03
